Time;durP1;ratioP1;P1;durP2;ratioP2;P2;SDS_P1;SDS_P2;PMS_P1;PMS_P2;Temp;Humidity;BMP_temperature;BMP_pressure;BME280_temperature;BME280_humidity;BME280_pressure;Samples;Min_cycle;Max_cycle;Signal;HPM_P1;HPM_P2
2023/05/13 00:04:04;;;;;;;9.30;6.53;;;7.60;99.90;;;;;;10434549;28;20751;-86
2023/05/13 00:09:06;;;;;;;9.37;5.90;;;7.70;99.90;;;;;;10426742;28;20778;-86
2023/05/13 00:14:10;;;;;;;11.77;6.43;;;7.80;99.90;;;;;;10402515;28;20272;-86
2023/05/13 00:19:13;;;;;;;8.67;5.80;;;7.90;99.90;;;;;;10407376;28;20262;-86
2023/05/13 00:24:15;;;;;;;11.57;6.83;;;7.90;99.90;;;;;;10411336;28;20718;-86
2023/05/13 00:29:18;;;;;;;9.57;6.10;;;7.90;99.90;;;;;;10411236;28;20267;-86
2023/05/13 00:34:20;;;;;;;8.50;6.70;;;7.80;99.90;;;;;;10410761;28;20216;-86
2023/05/13 00:39:23;;;;;;;8.13;5.53;;;7.70;99.90;;;;;;10411460;28;20742;-85
2023/05/13 00:44:27;;;;;;;8.87;6.53;;;7.50;99.90;;;;;;10410668;28;20238;-86
2023/05/13 00:49:30;;;;;;;7.70;6.20;;;7.50;99.90;;;;;;10411008;28;20274;-85
2023/05/13 00:54:33;;;;;;;9.63;6.50;;;7.40;99.90;;;;;;10411271;28;20293;-86
2023/05/13 00:59:35;;;;;;;8.90;6.77;;;7.30;99.90;;;;;;10409854;28;20199;-86
2023/05/13 01:04:43;;;;;;;9.27;6.97;;;7.20;99.90;;;;;;10408816;28;20219;-86
2023/05/13 01:10:12;;;;;;;13.50;7.03;;;7.00;99.90;;;;;;10410296;28;20606;-86
2023/05/13 01:15:20;;;;;;;17.23;7.00;;;6.80;99.90;;;;;;10392234;28;20211;-85
2023/05/13 01:20:25;;;;;;;10.20;7.13;;;6.70;99.90;;;;;;10418569;28;20207;-86
2023/05/13 01:25:28;;;;;;;10.13;7.53;;;6.60;99.90;;;;;;10413741;28;20250;-86
2023/05/13 01:30:32;;;;;;;9.47;7.33;;;6.40;99.90;;;;;;10440956;28;20751;-86
2023/05/13 01:35:38;;;;;;;10.20;7.90;;;6.20;99.90;;;;;;10440448;28;20297;-86
2023/05/13 01:40:45;;;;;;;18.60;7.97;;;6.10;99.90;;;;;;10407956;28;20258;-86
2023/05/13 01:45:48;;;;;;;10.10;7.93;;;6.10;99.90;;;;;;10408108;28;20304;-85
2023/05/13 01:50:51;;;;;;;9.37;8.40;;;6.00;99.90;;;;;;10406270;28;20653;-86
2023/05/13 01:55:54;;;;;;;11.97;7.90;;;6.00;99.90;;;;;;10392590;28;20235;-86
2023/05/13 02:00:56;;;;;;;9.03;7.43;;;6.00;99.90;;;;;;10407305;28;20369;-86
2023/05/13 02:05:59;;;;;;;13.53;7.87;;;6.00;99.90;;;;;;10406381;28;20777;-86
2023/05/13 02:11:01;;;;;;;11.30;7.83;;;5.80;99.90;;;;;;10407246;28;20260;-86
2023/05/13 02:16:04;;;;;;;13.77;8.60;;;5.60;99.90;;;;;;10406049;28;20765;-86
2023/05/13 02:21:08;;;;;;;10.20;7.73;;;5.60;99.90;;;;;;10406788;28;20634;-86
2023/05/13 02:26:11;;;;;;;12.93;8.27;;;5.50;99.90;;;;;;10407028;28;20269;-86
2023/05/13 02:31:13;;;;;;;9.60;7.00;;;5.40;99.90;;;;;;10439614;28;20262;-86
2023/05/13 02:36:17;;;;;;;9.67;7.57;;;5.40;99.90;;;;;;10406952;28;20373;-86
2023/05/13 02:41:21;;;;;;;14.03;8.20;;;5.50;99.90;;;;;;10406219;28;20274;-86
2023/05/13 02:46:24;;;;;;;9.43;7.13;;;5.50;99.90;;;;;;10406327;28;20320;-86
2023/05/13 02:51:29;;;;;;;10.97;8.50;;;5.60;99.90;;;;;;10398831;28;20295;-86
2023/05/13 02:56:32;;;;;;;12.83;7.73;;;5.80;99.90;;;;;;10412726;28;20290;-86
2023/05/13 03:01:35;;;;;;;12.73;8.20;;;5.80;99.90;;;;;;10418898;28;20230;-87
2023/05/13 03:06:37;;;;;;;8.40;7.10;;;6.00;99.90;;;;;;10425735;28;20262;-86
2023/05/13 03:11:40;;;;;;;9.17;7.50;;;6.10;99.90;;;;;;10405330;28;20270;-86
2023/05/13 03:16:43;;;;;;;10.83;7.33;;;6.10;99.90;;;;;;10405842;28;20238;-86
2023/05/13 03:21:49;;;;;;;11.70;8.27;;;6.30;99.90;;;;;;10405903;28;20769;-86
2023/05/13 03:26:51;;;;;;;11.47;8.03;;;6.30;99.90;;;;;;10409461;28;20313;-86
2023/05/13 03:31:54;;;;;;;13.73;8.63;;;6.30;99.90;;;;;;10413671;28;20633;-86
2023/05/13 03:36:58;;;;;;;11.57;8.47;;;6.20;99.90;;;;;;10412993;28;20220;-86
2023/05/13 03:42:03;;;;;;;13.37;9.30;;;6.30;99.90;;;;;;10413044;28;20227;-86
2023/05/13 03:47:06;;;;;;;12.67;9.17;;;6.40;99.90;;;;;;10412580;28;20262;-85
2023/05/13 03:52:09;;;;;;;19.40;9.30;;;6.40;99.90;;;;;;10412940;28;20203;-86
2023/05/13 03:57:12;;;;;;;14.30;9.53;;;6.60;99.90;;;;;;10412421;28;20202;-86
2023/05/13 04:02:15;;;;;;;17.53;10.33;;;6.80;99.90;;;;;;10412230;28;20557;-86
2023/05/13 04:07:18;;;;;;;16.60;9.50;;;7.00;99.90;;;;;;10444823;28;20720;-86
2023/05/13 04:12:20;;;;;;;9.77;8.77;;;7.10;99.90;;;;;;10405074;28;20282;-86
2023/05/13 04:17:22;;;;;;;13.23;9.10;;;7.30;99.90;;;;;;10386218;28;20238;-86
2023/05/13 04:22:25;;;;;;;12.80;9.57;;;7.40;99.90;;;;;;10418811;28;20204;-86
2023/05/13 04:27:28;;;;;;;14.83;8.13;;;7.50;99.90;;;;;;10409317;28;20340;-86
2023/05/13 04:32:38;;;;;;;10.30;8.30;;;7.70;99.90;;;;;;10410680;28;20204;-86
2023/05/13 04:37:40;;;;;;;19.87;10.63;;;7.90;99.90;;;;;;10410127;28;20732;-86
2023/05/13 04:42:53;;;;;;;22.23;9.63;;;8.20;99.90;;;;;;10410196;28;20731;-86
2023/05/13 04:48:01;;;;;;;18.97;8.67;;;8.40;99.90;;;;;;10409795;28;20662;-86
2023/05/13 04:53:04;;;;;;;14.53;8.43;;;8.60;99.90;;;;;;10410845;28;20289;-86
2023/05/13 04:58:07;;;;;;;11.27;8.83;;;8.80;99.90;;;;;;10393367;28;20761;-85
2023/05/13 05:03:11;;;;;;;15.13;8.93;;;9.00;99.90;;;;;;10409517;28;20234;-85
2023/05/13 05:08:14;;;;;;;12.23;9.07;;;9.10;99.90;;;;;;10409819;28;20633;-86
2023/05/13 05:13:18;;;;;;;12.90;9.20;;;9.30;99.90;;;;;;10409164;28;20208;-85
2023/05/13 05:18:20;;;;;;;12.37;8.73;;;9.60;99.90;;;;;;10408639;28;20615;-86
2023/05/13 05:23:25;;;;;;;12.17;9.70;;;9.80;99.90;;;;;;10408516;28;20200;-86
2023/05/13 05:28:28;;;;;;;14.73;9.37;;;10.00;99.90;;;;;;10408259;28;20268;-86
2023/05/13 05:33:31;;;;;;;12.43;8.17;;;10.30;99.90;;;;;;10421643;28;20235;-86
2023/05/13 05:38:34;;;;;;;15.63;8.50;;;10.50;99.10;;;;;;10409715;28;20243;-86
2023/05/13 05:43:38;;;;;;;11.43;8.43;;;10.80;98.40;;;;;;10416243;28;20275;-86
2023/05/13 05:48:40;;;;;;;16.20;8.13;;;11.10;97.50;;;;;;10408400;28;20731;-86
2023/05/13 05:53:43;;;;;;;10.50;7.30;;;11.40;96.90;;;;;;10407154;28;20231;-85
2023/05/13 05:58:48;;;;;;;12.70;7.43;;;11.70;96.90;;;;;;10407504;28;20232;-86
2023/05/13 06:03:51;;;;;;;12.07;6.33;;;12.00;96.30;;;;;;10406510;28;20313;-86
2023/05/13 06:08:56;;;;;;;10.50;7.10;;;12.20;95.20;;;;;;10442428;28;20254;-86
2023/05/13 06:13:59;;;;;;;10.07;7.30;;;12.50;93.80;;;;;;10449577;28;20207;-86
2023/05/13 06:19:02;;;;;;;7.63;5.60;;;12.90;92.60;;;;;;10399765;28;20219;-86
2023/05/13 06:24:05;;;;;;;8.93;5.87;;;13.30;89.60;;;;;;10408912;28;20432;-86
2023/05/13 06:29:07;;;;;;;7.40;5.20;;;13.60;85.90;;;;;;10408409;28;20654;-86
2023/05/13 06:34:15;;;;;;;6.23;5.47;;;14.00;82.40;;;;;;10408069;28;20286;-86
2023/05/13 06:39:17;;;;;;;13.27;5.17;;;14.30;71.40;;;;;;10407208;28;20293;-86
2023/05/13 06:44:21;;;;;;;8.53;6.33;;;14.70;66.80;;;;;;10427376;28;20210;-87
2023/05/13 06:49:28;;;;;;;10.17;5.37;;;15.00;63.40;;;;;;10396957;28;20779;-86
2023/05/13 06:54:31;;;;;;;7.03;6.00;;;15.30;55.40;;;;;;10406541;28;20235;-86
2023/05/13 06:59:34;;;;;;;10.20;5.30;;;15.70;52.70;;;;;;10407344;28;20677;-86
2023/05/13 07:04:38;;;;;;;7.90;6.33;;;;;;;;;;10412734;28;20242;-85
2023/05/13 07:09:40;;;;;;;6.97;5.73;;;;;;;;;;10414547;28;20258;-86
2023/05/13 07:14:44;;;;;;;7.50;5.60;;;17.00;47.30;;;;;;10413790;28;20614;-86
2023/05/13 07:19:46;;;;;;;7.07;4.77;;;17.10;39.10;;;;;;10414425;28;20235;-86
2023/05/13 07:24:49;;;;;;;7.40;6.70;;;17.50;39.90;;;;;;10427215;28;20334;-86
2023/05/13 07:29:51;;;;;;;8.00;6.67;;;17.70;37.50;;;;;;10412423;28;20251;-86
2023/05/13 07:34:53;;;;;;;7.03;6.10;;;18.00;35.80;;;;;;10419953;28;20315;-86
2023/05/13 07:39:56;;;;;;;6.73;5.93;;;18.20;30.30;;;;;;10417231;28;20263;-83
2023/05/13 07:44:59;;;;;;;6.73;3.63;;;18.40;32.30;;;;;;10398421;28;20455;-86
2023/05/13 07:50:02;;;;;;;7.90;6.50;;;18.70;30.40;;;;;;10411800;28;20255;-86
2023/05/13 07:55:05;;;;;;;7.57;5.83;;;18.70;30.80;;;;;;10412315;28;20273;-86
2023/05/13 08:00:08;;;;;;;6.23;4.70;;;18.90;26.20;;;;;;10412072;28;20235;-85
2023/05/13 08:05:17;;;;;;;7.90;4.93;;;19.00;25.80;;;;;;10410563;28;20297;-87
2023/05/13 08:10:20;;;;;;;8.03;7.03;;;19.10;25.30;;;;;;10411603;28;20709;-84
2023/05/13 08:15:23;;;;;;;5.70;4.07;;;19.30;26.00;;;;;;10410474;28;20273;-86
2023/05/13 08:20:28;;;;;;;8.03;6.60;;;19.30;19.60;;;;;;10410294;28;20798;-88
2023/05/13 08:25:31;;;;;;;10.65;8.07;;;19.40;25.10;;;;;;10411543;28;20693;-87
2023/05/13 08:30:34;;;;;;;8.45;5.93;;;19.40;26.10;;;;;;10403831;28;20294;-86
2023/05/13 08:35:36;;;;;;;13.60;5.07;;;19.50;21.50;;;;;;10410750;28;20286;-87
2023/05/13 08:40:41;;;;;;;8.97;4.83;;;19.60;20.80;;;;;;10412258;28;20263;-86
2023/05/13 08:45:46;;;;;;;7.67;4.20;;;19.60;21.70;;;;;;10410546;28;20239;-86
2023/05/13 08:50:49;;;;;;;9.30;4.77;;;19.70;17.90;;;;;;10393589;28;20685;-86
2023/05/13 08:55:53;;;;;;;7.47;6.60;;;19.80;18.80;;;;;;10410772;28;20236;-86
2023/05/13 09:00:56;;;;;;;17.37;5.70;;;19.90;19.50;;;;;;10422074;28;20266;-85
2023/05/13 09:06:00;;;;;;;6.57;5.83;;;19.90;16.80;;;;;;10410427;28;20258;-85
2023/05/13 09:11:03;;;;;;;6.63;5.80;;;20.00;17.60;;;;;;10409780;28;20644;-83
2023/05/13 09:16:06;;;;;;;8.70;6.67;;;20.10;16.80;;;;;;10410064;28;20293;-87
2023/05/13 09:21:23;;;;;;;8.50;5.25;;;20.10;20.10;;;;;;10403110;28;20254;-86
2023/05/13 09:26:29;;;;;;;5.67;4.83;;;20.10;15.20;;;;;;10392816;28;20258;-84
2023/05/13 09:31:32;;;;;;;6.97;3.20;;;20.10;17.50;;;;;;10376411;28;20298;-84
2023/05/13 09:36:35;;;;;;;9.75;4.57;;;20.10;13.40;;;;;;10401615;28;20239;-85
2023/05/13 09:41:38;;;;;;;8.73;6.27;;;20.30;14.60;;;;;;10404369;28;20283;-83
2023/05/13 09:46:42;;;;;;;8.40;6.93;;;20.30;20.00;;;;;;10390758;28;20228;-85
2023/05/13 09:51:45;;;;;;;8.20;3.30;;;20.20;18.60;;;;;;10390433;28;20285;-83
2023/05/13 09:56:47;;;;;;;10.15;3.63;;;20.30;14.60;;;;;;10396078;28;20264;-85
2023/05/13 10:01:50;;;;;;;8.50;5.55;;;20.40;12.00;;;;;;10405468;28;20232;-84
2023/05/13 10:06:53;;;;;;;8.80;3.03;;;20.30;16.20;;;;;;10407600;28;20231;-87
2023/05/13 10:11:57;;;;;;;8.57;4.97;;;20.40;11.90;;;;;;10394759;28;20663;-87
2023/05/13 10:17:01;;;;;;;15.18;4.80;;;20.40;16.90;;;;;;10400487;28;20236;-84
2023/05/13 10:22:05;;;;;;;6.93;5.37;;;20.40;17.70;;;;;;10405886;28;20253;-88
2023/05/13 10:27:10;;;;;;;5.47;4.40;;;20.60;14.30;;;;;;10399032;28;20231;-87
2023/05/13 10:32:13;;;;;;;8.98;6.30;;;20.70;14.80;;;;;;10404190;28;20227;-88
2023/05/13 10:37:46;;;;;;;16.03;7.73;;;20.60;16.80;;;;;;10412649;28;20611;-89
2023/05/13 10:43:17;;;;;;;9.17;6.87;;;20.50;16.00;;;;;;10388141;28;20718;-86
2023/05/13 10:48:19;;;;;;;4.57;4.13;;;20.50;18.40;;;;;;10420262;28;20273;-87
2023/05/13 10:53:23;;;;;;;7.03;4.93;;;20.60;15.80;;;;;;10412568;28;20294;-88
2023/05/13 10:58:38;;;;;;;7.93;7.10;;;20.40;14.20;;;;;;10419559;28;20246;-87
2023/05/13 11:03:49;;;;;;;8.73;6.60;;;20.60;18.30;;;;;;10421507;28;20222;-88
2023/05/13 11:08:52;;;;;;;11.10;5.17;;;20.70;15.30;;;;;;10404379;28;20294;-86
2023/05/13 11:14:19;;;;;;;6.60;5.70;;;20.90;14.50;;;;;;10414704;28;20293;-86
2023/05/13 11:19:34;;;;;;;3.90;2.70;;;21.10;13.60;;;;;;10411290;28;20243;-89
2023/05/13 11:24:37;;;;;;;6.13;4.57;;;;;;;;;;10410414;28;20281;-88
2023/05/13 11:29:47;;;;;;;7.82;5.75;;;;;;;;;;10411380;28;20949;-86
2023/05/13 11:34:50;;;;;;;10.77;3.53;;;21.50;13.40;;;;;;10406844;28;20231;-85
2023/05/13 11:39:53;;;;;;;7.73;3.40;;;21.60;8.80;;;;;;10413829;28;20266;-85
2023/05/13 11:44:56;;;;;;;4.47;3.17;;;21.50;6.90;;;;;;10412614;28;20235;-85
2023/05/13 11:49:58;;;;;;;5.25;3.08;;;21.30;10.30;;;;;;10412427;28;20308;-85
2023/05/13 11:55:01;;;;;;;4.20;3.83;;;21.30;8.10;;;;;;10413453;28;20235;-85
2023/05/13 12:00:06;;;;;;;4.75;4.35;;;21.10;11.80;;;;;;10412202;28;20243;-85
2023/05/13 12:05:12;;;;;;;8.20;5.35;;;21.00;12.40;;;;;;10413028;28;20296;-85
2023/05/13 12:10:16;;;;;;;4.15;3.75;;;20.90;12.30;;;;;;10411565;28;20285;-85
2023/05/13 12:15:20;;;;;;;7.28;4.15;;;20.60;8.10;;;;;;10412320;28;20626;-85
2023/05/13 12:20:23;;;;;;;6.72;5.43;;;20.40;12.10;;;;;;10410280;28;20309;-85
2023/05/13 12:25:45;;;;;;;11.25;5.20;;;20.30;14.50;;;;;;10411715;28;20377;-85
2023/05/13 12:30:59;;;;;;;5.20;4.47;;;20.40;11.40;;;;;;10411650;28;20613;-85
2023/05/13 12:36:19;;;;;;;11.07;6.35;;;20.40;13.10;;;;;;10410423;28;20746;-85
2023/05/13 12:41:24;;;;;;;8.23;5.27;;;20.40;13.90;;;;;;10411429;28;20702;-85
2023/05/13 12:46:27;;;;;;;9.25;5.32;;;20.50;13.10;;;;;;10410819;28;20235;-85
2023/05/13 12:51:31;;;;;;;10.40;5.80;;;20.40;11.50;;;;;;10410827;28;20676;-85
2023/05/13 12:56:34;;;;;;;7.67;3.47;;;20.30;13.30;;;;;;10411051;28;20280;-85
2023/05/13 13:01:36;;;;;;;5.97;5.40;;;20.20;11.70;;;;;;10410975;28;20236;-85
2023/05/13 13:06:39;;;;;;;8.55;6.07;;;20.30;13.00;;;;;;10410149;28;20288;-85
2023/05/13 13:11:41;;;;;;;9.65;5.57;;;20.40;13.90;;;;;;10410626;28;20309;-85
2023/05/13 13:16:44;;;;;;;13.48;6.53;;;20.30;12.80;;;;;;10409838;28;20270;-85
2023/05/13 13:21:46;;;;;;;5.40;4.57;;;20.20;13.70;;;;;;10408443;28;20292;-85
2023/05/13 13:26:49;;;;;;;10.60;6.73;;;20.20;11.00;;;;;;10409711;28;20616;-85
2023/05/13 13:31:51;;;;;;;5.90;3.83;;;20.10;13.30;;;;;;10409265;28;20246;-85
2023/05/13 13:36:54;;;;;;;5.30;4.18;;;20.00;13.30;;;;;;10408406;28;20628;-85
2023/05/13 13:41:57;;;;;;;6.63;3.78;;;20.00;12.50;;;;;;10408644;28;20294;-85
2023/05/13 13:46:59;;;;;;;8.87;7.40;;;20.10;11.50;;;;;;10408663;28;20694;-86
2023/05/13 13:52:02;;;;;;;17.57;3.57;;;20.40;14.40;;;;;;10408987;28;20255;-85
2023/05/13 13:57:04;;;;;;;13.10;5.30;;;20.50;10.40;;;;;;10408539;28;20269;-85
2023/05/13 14:02:08;;;;;;;7.85;5.65;;;20.60;11.60;;;;;;10440331;28;20647;-85
2023/05/13 14:07:11;;;;;;;9.10;5.53;;;20.80;12.90;;;;;;10408179;28;20227;-86
2023/05/13 14:12:13;;;;;;;8.03;4.73;;;21.10;13.20;;;;;;10407676;28;20277;-85
2023/05/13 14:17:16;;;;;;;9.60;8.13;;;21.20;12.20;;;;;;10408123;28;20254;-86
2023/05/13 14:22:20;;;;;;;8.85;7.68;;;21.00;13.70;;;;;;10408305;28;20301;-85
2023/05/13 14:27:23;;;;;;;8.65;6.07;;;20.90;13.30;;;;;;10408025;28;20285;-85
2023/05/13 14:32:26;;;;;;;8.83;7.83;;;21.00;11.50;;;;;;10407209;28;20250;-85
2023/05/13 14:37:28;;;;;;;6.23;3.63;;;21.00;12.60;;;;;;10406564;28;20231;-85
2023/05/13 14:42:31;;;;;;;18.02;7.63;;;21.00;9.60;;;;;;10406599;28;20275;-85
2023/05/13 14:47:34;;;;;;;6.00;3.50;;;21.10;11.10;;;;;;10407749;28;20219;-86
2023/05/13 14:52:37;;;;;;;5.43;4.80;;;21.10;10.30;;;;;;10407682;28;20324;-85
2023/05/13 14:57:39;;;;;;;7.57;5.87;;;21.20;10.80;;;;;;10407448;28;20231;-87
2023/05/13 15:02:42;;;;;;;9.20;5.13;;;21.30;12.40;;;;;;10405333;28;20246;-87
2023/05/13 15:07:45;;;;;;;7.67;6.80;;;21.40;11.20;;;;;;10407495;28;20200;-87
2023/05/13 15:12:47;;;;;;;8.23;5.33;;;21.40;13.60;;;;;;10405877;28;20286;-87
2023/05/13 15:17:50;;;;;;;7.20;5.17;;;21.20;11.30;;;;;;10406517;28;20243;-87
2023/05/13 15:22:54;;;;;;;9.18;6.28;;;21.00;11.80;;;;;;10408339;28;20230;-87
2023/05/13 15:27:56;;;;;;;8.95;7.68;;;20.90;12.20;;;;;;10414271;28;20651;-86
2023/05/13 15:32:59;;;;;;;7.23;4.23;;;20.70;13.30;;;;;;10413054;28;20247;-86
2023/05/13 15:38:02;;;;;;;11.07;8.18;;;20.50;10.10;;;;;;10414474;28;20196;-86
2023/05/13 15:43:04;;;;;;;15.53;4.67;;;20.50;14.00;;;;;;10413807;28;20621;-87
2023/05/13 15:48:07;;;;;;;10.57;7.53;;;20.50;10.50;;;;;;10412324;28;20223;-86
2023/05/13 15:53:10;;;;;;;6.90;6.30;;;20.50;14.50;;;;;;10412676;28;20297;-86
2023/05/13 15:58:12;;;;;;;5.43;4.93;;;20.40;13.10;;;;;;10413520;28;20285;-87
2023/05/13 16:03:15;;;;;;;7.10;5.40;;;20.30;9.30;;;;;;10412927;28;20296;-87
2023/05/13 16:08:18;;;;;;;11.70;5.40;;;20.30;13.80;;;;;;10412608;28;20235;-86
2023/05/13 16:13:21;;;;;;;9.63;4.43;;;20.30;13.60;;;;;;10412622;28;20234;-87
2023/05/13 16:18:23;;;;;;;9.55;8.50;;;20.20;11.70;;;;;;10412191;28;20671;-87
2023/05/13 16:23:26;;;;;;;8.43;6.40;;;20.20;15.10;;;;;;10412563;28;20306;-87
2023/05/13 16:28:28;;;;;;;5.72;3.80;;;20.20;12.10;;;;;;10412015;28;20253;-87
2023/05/13 16:33:47;;;;;;;9.00;5.05;;;20.30;12.10;;;;;;10410726;28;20199;-86
2023/05/13 16:39:14;;;;;;;8.60;7.47;;;20.30;15.00;;;;;;10411654;28;20292;-86
2023/05/13 16:44:32;;;;;;;9.75;6.43;;;20.30;18.60;;;;;;10411362;28;20254;-87
2023/05/13 16:49:40;;;;;;;13.53;10.07;;;20.30;14.30;;;;;;10410958;28;20274;-87
2023/05/13 16:54:56;;;;;;;8.02;7.07;;;20.30;19.10;;;;;;10389451;28;20261;-86
2023/05/13 17:00:07;;;;;;;8.90;8.07;;;20.20;16.60;;;;;;10409502;28;20235;-86
2023/05/13 17:05:09;;;;;;;8.52;7.28;;;20.10;16.70;;;;;;10409039;28;20239;-86
2023/05/13 17:10:12;;;;;;;10.50;8.70;;;20.00;15.90;;;;;;10408808;28;20273;-86
2023/05/13 17:15:15;;;;;;;9.97;5.13;;;19.90;17.70;;;;;;10409939;28;20285;-86
2023/05/13 17:20:18;;;;;;;20.08;5.25;;;19.80;13.00;;;;;;10409983;28;20713;-86
2023/05/13 17:25:21;;;;;;;19.37;5.10;;;19.60;14.40;;;;;;10410101;28;20653;-86
2023/05/13 17:30:23;;;;;;;4.77;3.80;;;19.50;15.60;;;;;;10408244;28;20712;-86
2023/05/13 17:35:26;;;;;;;7.23;3.57;;;19.30;16.20;;;;;;10408918;28;20245;-86
2023/05/13 17:40:28;;;;;;;8.30;3.37;;;19.00;15.80;;;;;;10408767;28;20301;-86
2023/05/13 17:45:31;;;;;;;16.63;4.20;;;18.60;17.50;;;;;;10408868;28;20235;-85
2023/05/13 17:50:34;;;;;;;23.83;5.10;;;18.10;18.40;;;;;;10408874;28;20285;-86
2023/05/13 17:55:37;;;;;;;23.50;5.40;;;17.60;19.90;;;;;;10407331;28;20235;-86
2023/05/13 18:00:39;;;;;;;17.03;5.87;;;17.30;19.20;;;;;;10406814;28;20694;-86
2023/05/13 18:05:42;;;;;;;11.13;5.27;;;16.50;21.10;;;;;;10406856;28;20285;-86
2023/05/13 18:10:45;;;;;;;11.97;4.83;;;16.40;21.30;;;;;;10407127;28;20278;-86
2023/05/13 18:15:48;;;;;;;11.57;4.43;;;16.00;26.30;;;;;;10390859;28;20211;-86
2023/05/13 18:20:51;;;;;;;10.87;4.60;;;15.60;30.50;;;;;;10407430;28;20231;-86
2023/05/13 18:25:54;;;;;;;9.63;4.27;;;15.10;33.30;;;;;;10408835;28;20195;-84
2023/05/13 18:30:57;;;;;;;11.00;5.10;;;14.70;35.80;;;;;;10406177;28;20277;-84
2023/05/13 18:36:00;;;;;;;13.23;5.77;;;14.30;38.00;;;;;;10406708;28;20238;-87
2023/05/13 18:41:03;;;;;;;14.93;5.20;;;14.10;39.90;;;;;;10421595;28;20312;-90
2023/05/13 18:46:06;;;;;;;11.83;6.20;;;13.80;39.50;;;;;;10445185;28;20242;-87
2023/05/13 18:51:10;;;;;;;16.93;5.13;;;13.70;43.10;;;;;;10447975;28;20258;-87
2023/05/13 18:56:12;;;;;;;16.83;5.63;;;13.30;50.00;;;;;;10412904;28;20281;-87
2023/05/13 19:01:15;;;;;;;36.10;6.33;;;12.90;57.70;;;;;;10415135;28;20227;-86
2023/05/13 19:06:17;;;;;;;56.83;9.37;;;12.60;65.10;;;;;;10415963;28;20249;-87
2023/05/13 19:11:20;;;;;;;13.20;5.30;;;12.30;80.60;;;;;;10414483;28;20320;-88
2023/05/13 19:16:23;;;;;;;38.47;8.53;;;12.10;90.40;;;;;;10417961;28;20290;-91
2023/05/13 19:21:26;;;;;;;40.60;8.17;;;11.80;91.00;;;;;;10416144;28;20219;-90
2023/05/13 19:26:29;;;;;;;26.93;8.73;;;11.70;94.40;;;;;;10414513;28;20630;-88
2023/05/13 19:31:31;;;;;;;28.63;9.33;;;11.40;96.50;;;;;;10066135;28;10001273;-88
2023/05/13 19:36:34;;;;;;;38.73;8.43;;;11.10;97.20;;;;;;10435770;28;20261;-85
2023/05/13 19:41:37;;;;;;;23.60;9.43;;;11.00;98.20;;;;;;10440759;28;20324;-85
2023/05/13 19:46:40;;;;;;;38.87;10.37;;;10.70;99.30;;;;;;10410844;28;20260;-87
2023/05/13 19:51:43;;;;;;;38.13;11.37;;;10.60;99.90;;;;;;10407308;28;20254;-85
2023/05/13 19:56:45;;;;;;;33.87;11.27;;;10.50;99.90;;;;;;10413426;28;20275;-85
2023/05/13 20:01:47;;;;;;;23.53;10.97;;;10.30;99.90;;;;;;10408936;28;20274;-85
2023/05/13 20:06:50;;;;;;;30.83;15.30;;;10.20;99.90;;;;;;10410377;28;20243;-85
2023/05/13 20:11:53;;;;;;;28.73;13.23;;;10.00;99.90;;;;;;10410442;28;20255;-85
2023/05/13 20:16:55;;;;;;;27.63;12.73;;;10.00;99.90;;;;;;10410617;28;20254;-84
2023/05/13 20:21:58;;;;;;;19.73;12.20;;;9.80;99.90;;;;;;10412374;28;20288;-85
2023/05/13 20:27:00;;;;;;;19.90;11.93;;;9.70;99.90;;;;;;10429544;28;20239;-85
2023/05/13 20:32:04;;;;;;;22.23;12.10;;;9.50;99.90;;;;;;10392037;28;20255;-86
2023/05/13 20:37:07;;;;;;;24.03;10.13;;;9.40;99.90;;;;;;10408636;28;20232;-87
2023/05/13 20:42:10;;;;;;;18.23;11.33;;;9.40;99.90;;;;;;10406806;28;20266;-87
2023/05/13 20:47:13;;;;;;;24.90;13.87;;;9.40;99.90;;;;;;10407940;28;20239;-86
2023/05/13 20:52:15;;;;;;;25.13;13.17;;;9.40;99.90;;;;;;10450364;28;20259;-86
2023/05/13 20:57:18;;;;;;;27.90;14.20;;;9.50;99.90;;;;;;10448983;28;20277;-86
2023/05/13 21:02:20;;;;;;;31.20;14.80;;;9.60;99.90;;;;;;10443490;28;20262;-85
2023/05/13 21:07:23;;;;;;;32.40;17.67;;;9.60;99.90;;;;;;10408358;28;20231;-85
2023/05/13 21:12:25;;;;;;;34.87;15.07;;;9.60;99.90;;;;;;10405444;28;20243;-86
2023/05/13 21:17:28;;;;;;;37.87;14.37;;;9.60;99.90;;;;;;10446716;28;20289;-86
2023/05/13 21:22:30;;;;;;;32.63;14.27;;;9.60;99.90;;;;;;10422062;28;20231;-86
2023/05/13 21:27:33;;;;;;;25.27;13.37;;;9.50;99.90;;;;;;10406150;28;20235;-87
2023/05/13 21:32:36;;;;;;;21.10;13.70;;;9.30;99.90;;;;;;10416957;28;20268;-86
2023/05/13 21:37:39;;;;;;;29.67;15.90;;;9.30;99.90;;;;;;10415622;28;20231;-87
2023/05/13 21:42:42;;;;;;;27.33;16.07;;;9.30;99.90;;;;;;10407347;28;20259;-87
2023/05/13 21:47:45;;;;;;;32.90;18.77;;;9.20;99.90;;;;;;10405915;28;20239;-87
2023/05/13 21:52:47;;;;;;;25.50;15.77;;;9.10;99.90;;;;;;10405918;28;20268;-86
2023/05/13 21:57:50;;;;;;;25.30;15.07;;;9.00;99.90;;;;;;10406555;28;20261;-87
2023/05/13 22:02:52;;;;;;;25.70;16.80;;;8.90;99.90;;;;;;10406963;28;20238;-87
2023/05/13 22:07:55;;;;;;;30.03;16.10;;;8.80;99.90;;;;;;10406045;28;20239;-88
2023/05/13 22:12:57;;;;;;;27.00;16.23;;;8.70;99.90;;;;;;10403786;28;20258;-89
2023/05/13 22:18:00;;;;;;;25.77;14.47;;;8.60;99.90;;;;;;10403451;28;20292;-89
2023/05/13 22:23:03;;;;;;;31.20;15.43;;;8.40;99.90;;;;;;10384432;28;20308;-89
2023/05/13 22:28:06;;;;;;;31.00;16.40;;;8.30;99.90;;;;;;10408816;28;20239;-89
2023/05/13 22:33:09;;;;;;;25.77;16.03;;;8.20;99.90;;;;;;10409373;28;20289;-91
2023/05/13 22:38:12;;;;;;;30.10;16.47;;;8.10;99.90;;;;;;10411366;28;20199;-91
2023/05/13 22:43:14;;;;;;;29.20;17.17;;;8.00;99.90;;;;;;10408743;28;20232;-90
2023/05/13 22:48:17;;;;;;;35.67;17.37;;;7.90;99.90;;;;;;10433772;28;20291;-89
2023/05/13 22:53:19;;;;;;;56.37;17.63;;;7.80;99.90;;;;;;10406380;28;20328;-90
2023/05/13 22:58:22;;;;;;;35.40;16.47;;;7.70;99.90;;;;;;10408564;28;20226;-89
2023/05/13 23:03:25;;;;;;;34.40;17.47;;;7.50;99.90;;;;;;10407864;28;20655;-89
2023/05/13 23:08:27;;;;;;;50.17;16.87;;;7.50;99.90;;;;;;10433584;28;20685;-90
2023/05/13 23:13:29;;;;;;;40.07;16.93;;;7.40;99.90;;;;;;10448902;28;20254;-89
2023/05/13 23:18:33;;;;;;;37.67;17.57;;;7.30;99.90;;;;;;10449846;28;20270;-89
2023/05/13 23:23:36;;;;;;;32.00;15.13;;;7.20;99.90;;;;;;10405832;28;20259;-89
2023/05/13 23:28:38;;;;;;;36.13;16.20;;;7.20;99.90;;;;;;10406276;28;20231;-89
2023/05/13 23:33:41;;;;;;;27.67;16.17;;;7.10;99.90;;;;;;10406863;28;20313;-89
2023/05/13 23:38:43;;;;;;;29.03;16.37;;;7.00;99.90;;;;;;10441695;28;20274;-89
2023/05/13 23:43:46;;;;;;;18.57;14.60;;;6.90;99.90;;;;;;10449892;28;20234;-89
2023/05/13 23:48:48;;;;;;;35.00;15.83;;;6.80;99.90;;;;;;10445791;28;20720;-89
2023/05/13 23:53:53;;;;;;;41.47;17.40;;;6.80;99.90;;;;;;10413298;28;20304;-89
2023/05/13 23:58:55;;;;;;;35.47;17.10;;;6.70;99.90;;;;;;10451708;28;20328;-89
